sensor_id;sensor_type;location;lat;lon;timestamp;temperature;humidity
9772;DHT22;4925;52.588;13.370;2023-02-10T00:01:12;1.60;99.90
9772;DHT22;4925;52.588;13.370;2023-02-10T00:03:38;1.50;99.90
9772;DHT22;4925;52.588;13.370;2023-02-10T00:06:06;1.50;99.90
9772;DHT22;4925;52.588;13.370;2023-02-10T00:08:33;1.50;99.90
9772;DHT22;4925;52.588;13.370;2023-02-10T00:11:04;1.50;99.90
9772;DHT22;4925;52.588;13.370;2023-02-10T00:13:30;1.50;99.90
9772;DHT22;4925;52.588;13.370;2023-02-10T00:16:00;1.50;99.90
9772;DHT22;4925;52.588;13.370;2023-02-10T00:18:27;1.60;99.90
9772;DHT22;4925;52.588;13.370;2023-02-10T00:20:53;1.60;99.90
9772;DHT22;4925;52.588;13.370;2023-02-10T00:23:19;1.60;99.90
9772;DHT22;4925;52.588;13.370;2023-02-10T00:25:45;1.50;99.90
9772;DHT22;4925;52.588;13.370;2023-02-10T00:28:10;1.50;99.90
9772;DHT22;4925;52.588;13.370;2023-02-10T00:30:37;1.60;99.90
9772;DHT22;4925;52.588;13.370;2023-02-10T00:33:03;1.60;99.90
9772;DHT22;4925;52.588;13.370;2023-02-10T00:35:29;1.60;99.90
9772;DHT22;4925;52.588;13.370;2023-02-10T00:37:54;1.50;99.90
9772;DHT22;4925;52.588;13.370;2023-02-10T00:40:20;1.50;99.90
9772;DHT22;4925;52.588;13.370;2023-02-10T00:42:46;1.60;99.90
9772;DHT22;4925;52.588;13.370;2023-02-10T00:45:11;1.60;99.90
9772;DHT22;4925;52.588;13.370;2023-02-10T00:47:38;1.60;99.90
9772;DHT22;4925;52.588;13.370;2023-02-10T00:50:04;1.80;99.90
9772;DHT22;4925;52.588;13.370;2023-02-10T00:52:30;1.60;99.90
9772;DHT22;4925;52.588;13.370;2023-02-10T00:54:56;1.70;99.90
9772;DHT22;4925;52.588;13.370;2023-02-10T00:57:21;1.70;99.90
9772;DHT22;4925;52.588;13.370;2023-02-10T00:59:47;1.70;99.90
9772;DHT22;4925;52.588;13.370;2023-02-10T01:02:13;1.70;99.90
9772;DHT22;4925;52.588;13.370;2023-02-10T01:04:38;1.70;99.90
9772;DHT22;4925;52.588;13.370;2023-02-10T01:07:05;1.70;99.90
9772;DHT22;4925;52.588;13.370;2023-02-10T01:09:31;1.70;99.90
9772;DHT22;4925;52.588;13.370;2023-02-10T01:11:57;1.70;99.90
9772;DHT22;4925;52.588;13.370;2023-02-10T01:14:23;1.60;99.90
9772;DHT22;4925;52.588;13.370;2023-02-10T01:16:49;1.60;99.90
9772;DHT22;4925;52.588;13.370;2023-02-10T01:19:15;1.60;99.90
9772;DHT22;4925;52.588;13.370;2023-02-10T01:21:41;1.60;99.90
9772;DHT22;4925;52.588;13.370;2023-02-10T01:24:07;1.60;99.90
9772;DHT22;4925;52.588;13.370;2023-02-10T01:26:33;1.50;99.90
9772;DHT22;4925;52.588;13.370;2023-02-10T01:28:59;1.50;99.90
9772;DHT22;4925;52.588;13.370;2023-02-10T01:31:25;1.50;99.90
9772;DHT22;4925;52.588;13.370;2023-02-10T01:33:52;1.40;99.90
9772;DHT22;4925;52.588;13.370;2023-02-10T01:36:20;1.40;99.90
9772;DHT22;4925;52.588;13.370;2023-02-10T01:38:47;1.30;99.90
9772;DHT22;4925;52.588;13.370;2023-02-10T01:41:15;1.20;99.90
9772;DHT22;4925;52.588;13.370;2023-02-10T01:46:22;1.10;99.90
9772;DHT22;4925;52.588;13.370;2023-02-10T01:48:49;1.10;99.90
9772;DHT22;4925;52.588;13.370;2023-02-10T01:51:16;1.20;99.90
9772;DHT22;4925;52.588;13.370;2023-02-10T01:53:43;1.10;99.90
9772;DHT22;4925;52.588;13.370;2023-02-10T01:56:10;1.00;99.90
9772;DHT22;4925;52.588;13.370;2023-02-10T01:58:37;1.00;99.90
9772;DHT22;4925;52.588;13.370;2023-02-10T02:01:03;1.00;99.90
9772;DHT22;4925;52.588;13.370;2023-02-10T02:03:29;1.00;99.90
9772;DHT22;4925;52.588;13.370;2023-02-10T02:05:54;0.90;99.90
9772;DHT22;4925;52.588;13.370;2023-02-10T02:08:31;0.90;99.90
9772;DHT22;4925;52.588;13.370;2023-02-10T02:22:18;1.00;99.90
9772;DHT22;4925;52.588;13.370;2023-02-10T02:27:28;1.00;99.90
9772;DHT22;4925;52.588;13.370;2023-02-10T02:32:35;0.90;99.90
9772;DHT22;4925;52.588;13.370;2023-02-10T02:35:16;1.00;99.90
9772;DHT22;4925;52.588;13.370;2023-02-10T02:37:44;1.00;99.90
9772;DHT22;4925;52.588;13.370;2023-02-10T02:40:13;1.00;99.90
9772;DHT22;4925;52.588;13.370;2023-02-10T02:42:39;0.90;99.90
9772;DHT22;4925;52.588;13.370;2023-02-10T02:45:08;0.90;99.90
9772;DHT22;4925;52.588;13.370;2023-02-10T02:53:24;1.00;99.90
9772;DHT22;4925;52.588;13.370;2023-02-10T03:00:58;1.20;99.90
9772;DHT22;4925;52.588;13.370;2023-02-10T03:03:34;1.20;99.90
9772;DHT22;4925;52.588;13.370;2023-02-10T03:06:01;1.20;99.90
9772;DHT22;4925;52.588;13.370;2023-02-10T03:08:28;1.20;99.90
9772;DHT22;4925;52.588;13.370;2023-02-10T03:10:55;1.20;99.90
9772;DHT22;4925;52.588;13.370;2023-02-10T03:13:20;1.20;99.90
9772;DHT22;4925;52.588;13.370;2023-02-10T03:15:46;1.30;99.90
9772;DHT22;4925;52.588;13.370;2023-02-10T03:18:12;1.20;99.90
9772;DHT22;4925;52.588;13.370;2023-02-10T03:20:39;1.20;99.90
9772;DHT22;4925;52.588;13.370;2023-02-10T03:23:04;1.20;99.90
9772;DHT22;4925;52.588;13.370;2023-02-10T03:25:30;1.20;99.90
9772;DHT22;4925;52.588;13.370;2023-02-10T03:27:56;1.20;99.90
9772;DHT22;4925;52.588;13.370;2023-02-10T03:30:21;1.20;99.90
9772;DHT22;4925;52.588;13.370;2023-02-10T03:32:47;1.20;99.90
9772;DHT22;4925;52.588;13.370;2023-02-10T03:35:14;1.20;99.90
9772;DHT22;4925;52.588;13.370;2023-02-10T03:37:40;1.20;99.90
9772;DHT22;4925;52.588;13.370;2023-02-10T03:40:06;1.20;99.90
9772;DHT22;4925;52.588;13.370;2023-02-10T03:42:32;1.20;99.90
9772;DHT22;4925;52.588;13.370;2023-02-10T03:44:58;1.20;99.90
9772;DHT22;4925;52.588;13.370;2023-02-10T03:47:23;1.20;99.90
9772;DHT22;4925;52.588;13.370;2023-02-10T03:49:49;1.20;99.90
9772;DHT22;4925;52.588;13.370;2023-02-10T03:52:15;1.20;99.90
9772;DHT22;4925;52.588;13.370;2023-02-10T03:54:41;1.30;99.90
9772;DHT22;4925;52.588;13.370;2023-02-10T03:57:06;1.30;99.90
9772;DHT22;4925;52.588;13.370;2023-02-10T03:59:32;1.20;99.90
9772;DHT22;4925;52.588;13.370;2023-02-10T04:01:58;1.30;99.90
9772;DHT22;4925;52.588;13.370;2023-02-10T04:04:24;1.30;99.90
9772;DHT22;4925;52.588;13.370;2023-02-10T04:06:49;1.30;99.90
9772;DHT22;4925;52.588;13.370;2023-02-10T04:09:15;1.30;99.90
9772;DHT22;4925;52.588;13.370;2023-02-10T04:11:41;1.30;99.90
9772;DHT22;4925;52.588;13.370;2023-02-10T04:14:06;1.30;99.90
9772;DHT22;4925;52.588;13.370;2023-02-10T04:16:32;1.30;99.90
9772;DHT22;4925;52.588;13.370;2023-02-10T04:18:59;1.30;99.90
9772;DHT22;4925;52.588;13.370;2023-02-10T04:21:25;1.40;99.90
9772;DHT22;4925;52.588;13.370;2023-02-10T04:23:51;1.30;99.90
9772;DHT22;4925;52.588;13.370;2023-02-10T04:26:17;1.30;99.90
9772;DHT22;4925;52.588;13.370;2023-02-10T04:28:43;1.30;99.90
9772;DHT22;4925;52.588;13.370;2023-02-10T04:31:09;1.40;99.90
9772;DHT22;4925;52.588;13.370;2023-02-10T04:33:36;1.30;99.90
9772;DHT22;4925;52.588;13.370;2023-02-10T04:36:02;1.30;99.90
9772;DHT22;4925;52.588;13.370;2023-02-10T04:38:31;1.40;99.90
9772;DHT22;4925;52.588;13.370;2023-02-10T04:40:57;1.30;99.90
9772;DHT22;4925;52.588;13.370;2023-02-10T04:43:22;1.30;99.90
9772;DHT22;4925;52.588;13.370;2023-02-10T04:45:49;1.30;99.90
9772;DHT22;4925;52.588;13.370;2023-02-10T04:48:14;1.30;99.90
9772;DHT22;4925;52.588;13.370;2023-02-10T04:50:41;1.40;99.90
9772;DHT22;4925;52.588;13.370;2023-02-10T04:53:07;1.30;99.90
9772;DHT22;4925;52.588;13.370;2023-02-10T04:55:33;1.30;99.90
9772;DHT22;4925;52.588;13.370;2023-02-10T04:58:00;1.30;99.90
9772;DHT22;4925;52.588;13.370;2023-02-10T05:00:26;1.40;99.90
9772;DHT22;4925;52.588;13.370;2023-02-10T05:02:51;1.40;99.90
9772;DHT22;4925;52.588;13.370;2023-02-10T05:05:17;1.40;99.90
9772;DHT22;4925;52.588;13.370;2023-02-10T05:07:43;1.40;99.90
9772;DHT22;4925;52.588;13.370;2023-02-10T05:10:09;1.50;99.90
9772;DHT22;4925;52.588;13.370;2023-02-10T05:12:35;1.50;99.90
9772;DHT22;4925;52.588;13.370;2023-02-10T05:15:00;1.50;99.90
9772;DHT22;4925;52.588;13.370;2023-02-10T05:17:26;1.50;99.90
9772;DHT22;4925;52.588;13.370;2023-02-10T05:19:52;1.60;99.90
9772;DHT22;4925;52.588;13.370;2023-02-10T05:22:17;1.60;99.90
9772;DHT22;4925;52.588;13.370;2023-02-10T05:24:43;1.60;99.90
9772;DHT22;4925;52.588;13.370;2023-02-10T05:27:09;1.60;99.90
9772;DHT22;4925;52.588;13.370;2023-02-10T05:29:34;1.60;99.90
9772;DHT22;4925;52.588;13.370;2023-02-10T05:32:00;1.50;99.90
9772;DHT22;4925;52.588;13.370;2023-02-10T05:34:26;1.50;99.90
9772;DHT22;4925;52.588;13.370;2023-02-10T05:36:52;1.50;99.90
9772;DHT22;4925;52.588;13.370;2023-02-10T05:39:18;1.40;99.90
9772;DHT22;4925;52.588;13.370;2023-02-10T05:41:59;1.40;99.90
9772;DHT22;4925;52.588;13.370;2023-02-10T05:44:27;1.40;99.90
9772;DHT22;4925;52.588;13.370;2023-02-10T05:46:53;1.50;99.90
9772;DHT22;4925;52.588;13.370;2023-02-10T05:49:19;1.40;99.90
9772;DHT22;4925;52.588;13.370;2023-02-10T05:51:45;1.40;99.90
9772;DHT22;4925;52.588;13.370;2023-02-10T05:54:12;1.40;99.90
9772;DHT22;4925;52.588;13.370;2023-02-10T05:56:38;1.30;99.90
9772;DHT22;4925;52.588;13.370;2023-02-10T05:59:04;1.40;99.90
9772;DHT22;4925;52.588;13.370;2023-02-10T06:01:30;1.30;99.90
9772;DHT22;4925;52.588;13.370;2023-02-10T06:03:56;1.40;99.90
9772;DHT22;4925;52.588;13.370;2023-02-10T06:06:22;1.40;99.90
9772;DHT22;4925;52.588;13.370;2023-02-10T06:08:47;1.40;99.90
9772;DHT22;4925;52.588;13.370;2023-02-10T06:11:13;1.40;99.90
9772;DHT22;4925;52.588;13.370;2023-02-10T06:13:39;1.30;99.90
9772;DHT22;4925;52.588;13.370;2023-02-10T06:16:05;1.30;99.90
9772;DHT22;4925;52.588;13.370;2023-02-10T06:18:31;1.20;99.90
9772;DHT22;4925;52.588;13.370;2023-02-10T06:20:57;1.20;99.90
9772;DHT22;4925;52.588;13.370;2023-02-10T06:23:24;1.20;99.90
9772;DHT22;4925;52.588;13.370;2023-02-10T06:25:51;1.30;99.90
9772;DHT22;4925;52.588;13.370;2023-02-10T06:28:22;1.20;99.90
9772;DHT22;4925;52.588;13.370;2023-02-10T06:30:48;1.20;99.90
9772;DHT22;4925;52.588;13.370;2023-02-10T06:33:14;2.10;99.90
9772;DHT22;4925;52.588;13.370;2023-02-10T06:35:39;1.20;99.90
9772;DHT22;4925;52.588;13.370;2023-02-10T06:38:05;1.10;99.90
9772;DHT22;4925;52.588;13.370;2023-02-10T06:40:31;1.10;99.90
9772;DHT22;4925;52.588;13.370;2023-02-10T06:42:56;1.10;99.90
9772;DHT22;4925;52.588;13.370;2023-02-10T06:45:22;1.10;99.90
9772;DHT22;4925;52.588;13.370;2023-02-10T06:47:48;1.20;99.90
9772;DHT22;4925;52.588;13.370;2023-02-10T06:50:14;1.20;99.90
9772;DHT22;4925;52.588;13.370;2023-02-10T06:52:40;1.30;99.90
9772;DHT22;4925;52.588;13.370;2023-02-10T06:55:06;1.30;99.90
9772;DHT22;4925;52.588;13.370;2023-02-10T06:57:33;1.30;99.90
9772;DHT22;4925;52.588;13.370;2023-02-10T07:00:06;1.40;99.90
9772;DHT22;4925;52.588;13.370;2023-02-10T07:02:34;1.40;99.90
9772;DHT22;4925;52.588;13.370;2023-02-10T07:04:59;1.40;99.90
9772;DHT22;4925;52.588;13.370;2023-02-10T07:07:25;1.50;99.90
9772;DHT22;4925;52.588;13.370;2023-02-10T07:09:51;1.50;99.90
9772;DHT22;4925;52.588;13.370;2023-02-10T07:12:19;1.50;99.90
9772;DHT22;4925;52.588;13.370;2023-02-10T07:14:45;1.60;99.90
9772;DHT22;4925;52.588;13.370;2023-02-10T07:17:11;1.60;99.90
9772;DHT22;4925;52.588;13.370;2023-02-10T07:19:37;1.60;99.90
9772;DHT22;4925;52.588;13.370;2023-02-10T07:22:03;1.60;99.90
9772;DHT22;4925;52.588;13.370;2023-02-10T07:24:32;1.60;99.90
9772;DHT22;4925;52.588;13.370;2023-02-10T07:26:58;1.70;99.90
9772;DHT22;4925;52.588;13.370;2023-02-10T07:29:24;1.70;99.90
9772;DHT22;4925;52.588;13.370;2023-02-10T07:31:49;1.70;99.90
9772;DHT22;4925;52.588;13.370;2023-02-10T07:34:15;1.80;99.90
9772;DHT22;4925;52.588;13.370;2023-02-10T07:36:44;1.70;99.90
9772;DHT22;4925;52.588;13.370;2023-02-10T07:39:10;1.80;99.90
9772;DHT22;4925;52.588;13.370;2023-02-10T07:41:36;1.90;99.90
9772;DHT22;4925;52.588;13.370;2023-02-10T07:44:02;1.90;99.90
9772;DHT22;4925;52.588;13.370;2023-02-10T07:46:28;1.90;99.90
9772;DHT22;4925;52.588;13.370;2023-02-10T07:48:53;2.00;99.90
9772;DHT22;4925;52.588;13.370;2023-02-10T07:51:19;2.00;99.90
9772;DHT22;4925;52.588;13.370;2023-02-10T07:53:45;2.50;99.90
9772;DHT22;4925;52.588;13.370;2023-02-10T07:56:11;2.00;99.90
9772;DHT22;4925;52.588;13.370;2023-02-10T07:58:36;2.50;99.90
9772;DHT22;4925;52.588;13.370;2023-02-10T08:01:09;2.10;99.90
9772;DHT22;4925;52.588;13.370;2023-02-10T08:03:35;2.10;99.90
9772;DHT22;4925;52.588;13.370;2023-02-10T08:06:00;2.10;99.90
9772;DHT22;4925;52.588;13.370;2023-02-10T08:08:26;2.10;99.90
9772;DHT22;4925;52.588;13.370;2023-02-10T08:10:52;2.10;99.90
9772;DHT22;4925;52.588;13.370;2023-02-10T08:13:18;2.10;99.90
9772;DHT22;4925;52.588;13.370;2023-02-10T08:15:43;2.20;99.90
9772;DHT22;4925;52.588;13.370;2023-02-10T08:18:09;2.20;99.90
9772;DHT22;4925;52.588;13.370;2023-02-10T08:20:35;2.30;99.90
9772;DHT22;4925;52.588;13.370;2023-02-10T08:23:01;2.30;99.90
9772;DHT22;4925;52.588;13.370;2023-02-10T08:25:27;2.40;99.90
9772;DHT22;4925;52.588;13.370;2023-02-10T08:27:52;2.50;99.90
9772;DHT22;4925;52.588;13.370;2023-02-10T08:30:18;2.50;99.90
9772;DHT22;4925;52.588;13.370;2023-02-10T08:32:44;2.60;99.90
9772;DHT22;4925;52.588;13.370;2023-02-10T08:35:09;2.60;99.90
9772;DHT22;4925;52.588;13.370;2023-02-10T08:37:35;2.60;99.90
9772;DHT22;4925;52.588;13.370;2023-02-10T08:40:01;3.30;99.90
9772;DHT22;4925;52.588;13.370;2023-02-10T08:42:27;2.80;99.90
9772;DHT22;4925;52.588;13.370;2023-02-10T08:44:53;2.80;99.90
9772;DHT22;4925;52.588;13.370;2023-02-10T08:47:19;3.10;99.90
9772;DHT22;4925;52.588;13.370;2023-02-10T08:49:44;3.00;99.90
9772;DHT22;4925;52.588;13.370;2023-02-10T08:52:10;3.10;99.90
9772;DHT22;4925;52.588;13.370;2023-02-10T08:54:36;3.10;99.90
9772;DHT22;4925;52.588;13.370;2023-02-10T08:57:02;3.20;99.90
9772;DHT22;4925;52.588;13.370;2023-02-10T08:59:27;3.30;99.90
9772;DHT22;4925;52.588;13.370;2023-02-10T09:01:53;3.30;99.90
9772;DHT22;4925;52.588;13.370;2023-02-10T09:04:19;3.30;99.90
9772;DHT22;4925;52.588;13.370;2023-02-10T09:06:45;3.40;99.90
9772;DHT22;4925;52.588;13.370;2023-02-10T09:09:13;3.30;99.90
9772;DHT22;4925;52.588;13.370;2023-02-10T09:11:40;3.30;99.90
9772;DHT22;4925;52.588;13.370;2023-02-10T09:14:07;3.30;99.90
9772;DHT22;4925;52.588;13.370;2023-02-10T09:16:33;3.30;99.90
9772;DHT22;4925;52.588;13.370;2023-02-10T09:18:59;3.50;99.90
9772;DHT22;4925;52.588;13.370;2023-02-10T09:21:26;3.40;99.90
9772;DHT22;4925;52.588;13.370;2023-02-10T09:23:52;3.40;99.90
9772;DHT22;4925;52.588;13.370;2023-02-10T09:26:18;3.40;99.90
9772;DHT22;4925;52.588;13.370;2023-02-10T09:28:44;3.50;99.90
9772;DHT22;4925;52.588;13.370;2023-02-10T09:31:12;3.50;99.90
9772;DHT22;4925;52.588;13.370;2023-02-10T09:33:38;3.50;99.90
9772;DHT22;4925;52.588;13.370;2023-02-10T09:36:05;3.50;99.90
9772;DHT22;4925;52.588;13.370;2023-02-10T09:38:31;3.50;99.90
9772;DHT22;4925;52.588;13.370;2023-02-10T09:44:01;3.50;99.90
9772;DHT22;4925;52.588;13.370;2023-02-10T09:54:29;3.70;99.90
9772;DHT22;4925;52.588;13.370;2023-02-10T09:57:03;3.80;99.90
9772;DHT22;4925;52.588;13.370;2023-02-10T09:59:29;3.90;99.90
9772;DHT22;4925;52.588;13.370;2023-02-10T10:02:02;4.00;99.90
9772;DHT22;4925;52.588;13.370;2023-02-10T10:04:30;4.00;99.90
9772;DHT22;4925;52.588;13.370;2023-02-10T10:07:19;4.00;99.90
9772;DHT22;4925;52.588;13.370;2023-02-10T10:09:56;4.10;99.90
9772;DHT22;4925;52.588;13.370;2023-02-10T10:12:23;4.10;99.90
9772;DHT22;4925;52.588;13.370;2023-02-10T10:14:49;4.10;99.90
9772;DHT22;4925;52.588;13.370;2023-02-10T10:31:18;4.50;99.90
9772;DHT22;4925;52.588;13.370;2023-02-10T10:33:47;4.60;99.90
9772;DHT22;4925;52.588;13.370;2023-02-10T10:39:35;4.70;99.90
9772;DHT22;4925;52.588;13.370;2023-02-10T10:44:44;4.60;99.90
9772;DHT22;4925;52.588;13.370;2023-02-10T10:47:15;4.60;99.90
9772;DHT22;4925;52.588;13.370;2023-02-10T10:49:43;4.60;99.90
9772;DHT22;4925;52.588;13.370;2023-02-10T10:52:29;4.50;99.90
9772;DHT22;4925;52.588;13.370;2023-02-10T10:54:57;4.60;99.90
9772;DHT22;4925;52.588;13.370;2023-02-10T10:57:25;4.70;99.90
9772;DHT22;4925;52.588;13.370;2023-02-10T11:00:24;4.70;99.90
9772;DHT22;4925;52.588;13.370;2023-02-10T11:02:54;4.90;99.90
9772;DHT22;4925;52.588;13.370;2023-02-10T11:05:21;4.90;99.90
9772;DHT22;4925;52.588;13.370;2023-02-10T11:07:49;5.00;99.90
9772;DHT22;4925;52.588;13.370;2023-02-10T11:10:27;5.10;99.90
9772;DHT22;4925;52.588;13.370;2023-02-10T11:12:54;5.20;99.90
9772;DHT22;4925;52.588;13.370;2023-02-10T11:15:31;5.30;99.90
9772;DHT22;4925;52.588;13.370;2023-02-10T11:17:58;5.30;99.90
9772;DHT22;4925;52.588;13.370;2023-02-10T11:20:34;5.00;99.90
9772;DHT22;4925;52.588;13.370;2023-02-10T11:23:14;5.10;99.90
9772;DHT22;4925;52.588;13.370;2023-02-10T11:25:41;5.00;99.90
9772;DHT22;4925;52.588;13.370;2023-02-10T11:28:19;5.00;99.90
9772;DHT22;4925;52.588;13.370;2023-02-10T11:30:52;4.90;99.90
9772;DHT22;4925;52.588;13.370;2023-02-10T11:33:23;5.00;99.90
9772;DHT22;4925;52.588;13.370;2023-02-10T11:35:52;6.40;99.90
9772;DHT22;4925;52.588;13.370;2023-02-10T11:38:24;5.20;99.90
9772;DHT22;4925;52.588;13.370;2023-02-10T11:40:58;5.10;99.90
9772;DHT22;4925;52.588;13.370;2023-02-10T11:43:37;5.20;99.90
9772;DHT22;4925;52.588;13.370;2023-02-10T11:46:06;5.40;99.90
9772;DHT22;4925;52.588;13.370;2023-02-10T11:48:35;5.60;99.90
9772;DHT22;4925;52.588;13.370;2023-02-10T11:51:21;5.60;99.90
9772;DHT22;4925;52.588;13.370;2023-02-10T11:53:47;5.50;99.90
9772;DHT22;4925;52.588;13.370;2023-02-10T11:56:23;5.40;99.90
9772;DHT22;4925;52.588;13.370;2023-02-10T11:59:35;5.50;99.90
9772;DHT22;4925;52.588;13.370;2023-02-10T12:02:17;5.50;99.90
9772;DHT22;4925;52.588;13.370;2023-02-10T12:07:59;5.60;99.90
9772;DHT22;4925;52.588;13.370;2023-02-10T12:19:08;5.70;99.90
9772;DHT22;4925;52.588;13.370;2023-02-10T12:27:18;5.70;99.90
9772;DHT22;4925;52.588;13.370;2023-02-10T12:35:33;5.90;99.90
9772;DHT22;4925;52.588;13.370;2023-02-10T12:41:26;6.00;99.90
9772;DHT22;4925;52.588;13.370;2023-02-10T12:44:20;5.90;99.90
9772;DHT22;4925;52.588;13.370;2023-02-10T12:52:34;6.10;99.90
9772;DHT22;4925;52.588;13.370;2023-02-10T13:00:34;5.90;99.90
9772;DHT22;4925;52.588;13.370;2023-02-10T13:03:14;5.80;99.90
9772;DHT22;4925;52.588;13.370;2023-02-10T13:05:48;5.90;99.90
9772;DHT22;4925;52.588;13.370;2023-02-10T13:08:24;6.00;99.90
9772;DHT22;4925;52.588;13.370;2023-02-10T13:13:57;6.30;99.90
9772;DHT22;4925;52.588;13.370;2023-02-10T13:16:28;6.30;99.90
9772;DHT22;4925;52.588;13.370;2023-02-10T13:21:43;6.50;99.90
9772;DHT22;4925;52.588;13.370;2023-02-10T13:24:21;6.50;99.90
9772;DHT22;4925;52.588;13.370;2023-02-10T13:27:04;6.40;99.90
9772;DHT22;4925;52.588;13.370;2023-02-10T13:32:07;6.30;99.90
9772;DHT22;4925;52.588;13.370;2023-02-10T13:34:39;6.20;99.90
9772;DHT22;4925;52.588;13.370;2023-02-10T13:39:57;6.30;99.90
9772;DHT22;4925;52.588;13.370;2023-02-10T13:42:39;6.20;99.90
9772;DHT22;4925;52.588;13.370;2023-02-10T13:47:47;6.20;99.90
9772;DHT22;4925;52.588;13.370;2023-02-10T13:50:30;6.10;99.90
9772;DHT22;4925;52.588;13.370;2023-02-10T13:53:03;6.20;99.90
9772;DHT22;4925;52.588;13.370;2023-02-10T13:55:42;6.20;99.90
9772;DHT22;4925;52.588;13.370;2023-02-10T14:00:49;6.10;99.90
9772;DHT22;4925;52.588;13.370;2023-02-10T14:03:30;6.00;99.90
9772;DHT22;4925;52.588;13.370;2023-02-10T14:06:01;6.00;99.90
9772;DHT22;4925;52.588;13.370;2023-02-10T14:08:36;6.10;99.90
9772;DHT22;4925;52.588;13.370;2023-02-10T14:11:10;6.10;99.90
9772;DHT22;4925;52.588;13.370;2023-02-10T14:14:02;6.10;99.90
9772;DHT22;4925;52.588;13.370;2023-02-10T14:16:29;6.80;99.90
9772;DHT22;4925;52.588;13.370;2023-02-10T14:19:02;6.20;99.90
9772;DHT22;4925;52.588;13.370;2023-02-10T14:21:41;6.20;99.90
9772;DHT22;4925;52.588;13.370;2023-02-10T14:24:25;6.30;99.90
9772;DHT22;4925;52.588;13.370;2023-02-10T14:26:52;6.40;99.90
9772;DHT22;4925;52.588;13.370;2023-02-10T14:29:20;6.50;99.90
9772;DHT22;4925;52.588;13.370;2023-02-10T14:31:56;6.60;99.90
9772;DHT22;4925;52.588;13.370;2023-02-10T14:34:27;6.50;99.90
9772;DHT22;4925;52.588;13.370;2023-02-10T14:39:22;6.40;99.90
9772;DHT22;4925;52.588;13.370;2023-02-10T14:41:49;6.50;99.90
9772;DHT22;4925;52.588;13.370;2023-02-10T14:44:35;6.60;99.90
9772;DHT22;4925;52.588;13.370;2023-02-10T14:47:02;6.60;99.90
9772;DHT22;4925;52.588;13.370;2023-02-10T14:49:28;6.60;99.90
9772;DHT22;4925;52.588;13.370;2023-02-10T14:51:58;6.60;99.90
9772;DHT22;4925;52.588;13.370;2023-02-10T14:54:26;6.60;99.90
9772;DHT22;4925;52.588;13.370;2023-02-10T14:56:55;6.50;99.90
9772;DHT22;4925;52.588;13.370;2023-02-10T14:59:26;6.60;99.90
9772;DHT22;4925;52.588;13.370;2023-02-10T15:01:57;6.60;99.90
9772;DHT22;4925;52.588;13.370;2023-02-10T15:04:24;6.50;99.90
9772;DHT22;4925;52.588;13.370;2023-02-10T15:06:55;6.40;99.90
9772;DHT22;4925;52.588;13.370;2023-02-10T15:09:31;6.30;99.90
9772;DHT22;4925;52.588;13.370;2023-02-10T15:12:03;6.20;99.90
9772;DHT22;4925;52.588;13.370;2023-02-10T15:14:56;6.10;99.90
9772;DHT22;4925;52.588;13.370;2023-02-10T15:17:38;6.10;99.90
9772;DHT22;4925;52.588;13.370;2023-02-10T15:22:45;6.20;99.90
9772;DHT22;4925;52.588;13.370;2023-02-10T15:33:39;6.30;99.90
9772;DHT22;4925;52.588;13.370;2023-02-10T15:36:43;6.20;99.90
9772;DHT22;4925;52.588;13.370;2023-02-10T15:41:57;6.10;99.90
9772;DHT22;4925;52.588;13.370;2023-02-10T15:44:41;6.10;99.90
9772;DHT22;4925;52.588;13.370;2023-02-10T15:49:42;6.10;99.90
9772;DHT22;4925;52.588;13.370;2023-02-10T15:52:20;6.00;99.90
9772;DHT22;4925;52.588;13.370;2023-02-10T15:54:47;6.10;99.90
9772;DHT22;4925;52.588;13.370;2023-02-10T15:57:16;6.20;99.90
9772;DHT22;4925;52.588;13.370;2023-02-10T15:59:42;6.10;99.90
9772;DHT22;4925;52.588;13.370;2023-02-10T16:02:12;6.10;99.90
9772;DHT22;4925;52.588;13.370;2023-02-10T16:04:38;6.10;99.90
9772;DHT22;4925;52.588;13.370;2023-02-10T16:07:10;6.10;99.90
9772;DHT22;4925;52.588;13.370;2023-02-10T16:09:38;6.00;99.90
9772;DHT22;4925;52.588;13.370;2023-02-10T16:12:03;6.00;99.90
9772;DHT22;4925;52.588;13.370;2023-02-10T16:14:29;5.90;99.90
9772;DHT22;4925;52.588;13.370;2023-02-10T16:16:57;5.90;99.90
9772;DHT22;4925;52.588;13.370;2023-02-10T16:19:26;5.80;99.90
9772;DHT22;4925;52.588;13.370;2023-02-10T16:21:52;5.80;99.90
9772;DHT22;4925;52.588;13.370;2023-02-10T16:24:26;5.80;99.90
9772;DHT22;4925;52.588;13.370;2023-02-10T16:26:54;5.80;99.90
9772;DHT22;4925;52.588;13.370;2023-02-10T16:29:22;5.80;99.90
9772;DHT22;4925;52.588;13.370;2023-02-10T16:31:48;5.70;99.90
9772;DHT22;4925;52.588;13.370;2023-02-10T16:34:14;5.70;99.90
9772;DHT22;4925;52.588;13.370;2023-02-10T16:36:41;5.70;99.90
9772;DHT22;4925;52.588;13.370;2023-02-10T16:39:16;5.70;99.90
9772;DHT22;4925;52.588;13.370;2023-02-10T16:41:44;5.70;99.90
9772;DHT22;4925;52.588;13.370;2023-02-10T16:44:10;5.70;99.90
9772;DHT22;4925;52.588;13.370;2023-02-10T16:46:36;5.60;99.90
9772;DHT22;4925;52.588;13.370;2023-02-10T16:49:03;5.50;99.90
9772;DHT22;4925;52.588;13.370;2023-02-10T16:51:28;6.40;99.90
9772;DHT22;4925;52.588;13.370;2023-02-10T16:53:54;5.50;99.90
9772;DHT22;4925;52.588;13.370;2023-02-10T16:56:21;5.50;99.90
9772;DHT22;4925;52.588;13.370;2023-02-10T16:58:49;5.50;99.90
9772;DHT22;4925;52.588;13.370;2023-02-10T17:01:16;5.40;99.90
9772;DHT22;4925;52.588;13.370;2023-02-10T17:03:43;5.40;99.90
9772;DHT22;4925;52.588;13.370;2023-02-10T17:06:22;5.40;99.90
9772;DHT22;4925;52.588;13.370;2023-02-10T17:08:48;5.40;99.90
9772;DHT22;4925;52.588;13.370;2023-02-10T17:11:14;5.40;99.90
9772;DHT22;4925;52.588;13.370;2023-02-10T17:13:40;5.30;99.90
9772;DHT22;4925;52.588;13.370;2023-02-10T17:16:06;5.30;99.90
9772;DHT22;4925;52.588;13.370;2023-02-10T17:18:31;5.20;99.90
9772;DHT22;4925;52.588;13.370;2023-02-10T17:20:57;5.30;99.90
9772;DHT22;4925;52.588;13.370;2023-02-10T17:23:23;5.40;99.90
9772;DHT22;4925;52.588;13.370;2023-02-10T17:25:48;5.50;99.90
9772;DHT22;4925;52.588;13.370;2023-02-10T17:28:15;5.50;99.90
9772;DHT22;4925;52.588;13.370;2023-02-10T17:30:42;5.40;99.90
9772;DHT22;4925;52.588;13.370;2023-02-10T17:33:25;5.40;99.90
9772;DHT22;4925;52.588;13.370;2023-02-10T17:35:53;5.30;99.90
9772;DHT22;4925;52.588;13.370;2023-02-10T17:38:19;5.30;99.90
9772;DHT22;4925;52.588;13.370;2023-02-10T17:41:03;5.30;99.90
9772;DHT22;4925;52.588;13.370;2023-02-10T17:43:29;5.20;99.90
9772;DHT22;4925;52.588;13.370;2023-02-10T17:45:54;5.20;99.90
9772;DHT22;4925;52.588;13.370;2023-02-10T17:48:20;5.20;99.90
9772;DHT22;4925;52.588;13.370;2023-02-10T17:50:45;5.20;99.90
9772;DHT22;4925;52.588;13.370;2023-02-10T17:53:11;5.20;99.90
9772;DHT22;4925;52.588;13.370;2023-02-10T17:55:41;5.10;99.90
9772;DHT22;4925;52.588;13.370;2023-02-10T17:58:07;5.00;99.90
9772;DHT22;4925;52.588;13.370;2023-02-10T18:00:32;5.10;99.90
9772;DHT22;4925;52.588;13.370;2023-02-10T18:02:58;5.00;99.90
9772;DHT22;4925;52.588;13.370;2023-02-10T18:05:24;5.00;99.90
9772;DHT22;4925;52.588;13.370;2023-02-10T18:07:49;4.90;99.90
9772;DHT22;4925;52.588;13.370;2023-02-10T18:10:15;4.90;99.90
9772;DHT22;4925;52.588;13.370;2023-02-10T18:12:41;4.90;99.90
9772;DHT22;4925;52.588;13.370;2023-02-10T18:15:07;4.80;99.90
9772;DHT22;4925;52.588;13.370;2023-02-10T18:17:33;4.80;99.90
9772;DHT22;4925;52.588;13.370;2023-02-10T18:19:58;4.80;99.90
9772;DHT22;4925;52.588;13.370;2023-02-10T18:22:24;4.70;99.90
9772;DHT22;4925;52.588;13.370;2023-02-10T18:24:50;4.80;99.90